Lamco Airport

Jump to: basic info | weather | comments

Related pages: nearby airports | nearby navaids | notams | map

Basic information (top)

Codes: UCN GLLB
Location: lon 5.867000, lat -10.050000, elev 30 ft / 9 m msl
Status: small_airport
Scheduled airline service: no
Links: Wikipedia Mobile

Weather (top)

Current conditions for Roberts International Airport 29nm (53km) NW (rec'd 2014/04/25 03:00Z):

GLRB 250300Z 07003KT 9999 SCT012 24/23 Q1009 NOSIG

Airport forecast for Roberts International Airport 29nm (53km) NW (rec'd 2014/04/24 00:54Z):

TAF TAF GLRB 242200Z 2500/2606 18005KT 9999 SCT014 
      BECMG 2501/2503 VRB03KT 8000 SCT012 
      TEMPO 2504/2508 07005KT 8000 
     FM251000 21010KT 9999 SCT016 FEW025CB BKN100

Latest comments (top)

No comments yet for Lamco Airport

More... (top)

See also NOTAMs and nearby airports and navaids, or visit the Lamco Airport page at the main OurAirports website..